Time;durP1;ratioP1;P1;durP2;ratioP2;P2;SDS_P1;SDS_P2;PMS_P1;PMS_P2;Temp;Humidity;BMP_temperature;BMP_pressure;BME280_temperature;BME280_humidity;BME280_pressure;Samples;Min_cycle;Max_cycle;Signal;HPM_P1;HPM_P2
2024/01/06 00:00:35;;;;;;;;;;;;;;;22.82;36.35;100270.28;5138931;28;19922;-47
2024/01/06 00:03:00;;;;;;;;;;;;;;;22.74;36.68;100284.84;5103983;28;19984;-47
2024/01/06 00:05:25;;;;;;;;;;;;;;;22.68;37.06;100278.41;5134156;28;19971;-48
2024/01/06 00:07:50;;;;;;;;;;;;;;;22.62;37.25;100283.81;5136730;28;19912;-45
2024/01/06 00:10:15;;;;;;;;;;;;;;;22.59;37.14;100297.78;5141872;28;20348;-49
2024/01/06 00:12:40;;;;;;;;;;;;;;;22.54;37.20;100292.16;5134537;28;20426;-45
2024/01/06 00:15:06;;;;;;;;;;;;;;;22.50;37.25;100293.59;5140065;28;20346;-47
2024/01/06 00:17:31;;;;;;;;;;;;;;;22.43;37.43;100294.44;5138644;27;19933;-45
2024/01/06 00:19:56;;;;;;;;;;;;;;;22.41;37.26;100301.94;5141428;27;19916;-48
2024/01/06 00:22:22;;;;;;;;;;;;;;;22.39;37.29;100308.59;5136313;27;19939;-49
2024/01/06 00:24:48;;;;;;;;;;;;;;;22.35;37.42;100302.75;5147220;27;19920;-48
2024/01/06 00:27:13;;;;;;;;;;;;;;;22.33;37.79;100309.41;5138840;27;19912;-45
2024/01/06 00:29:38;;;;;;;;;;;;;;;22.29;37.58;100306.28;5139126;27;19918;-50
2024/01/06 00:32:04;;;;;;;;;;;;;;;22.25;37.65;100307.72;5143293;27;19919;-48
2024/01/06 00:34:29;;;;;;;;;;;;;;;22.22;37.44;100302.75;5140429;27;19972;-44
2024/01/06 00:36:54;;;;;;;;;;;;;;;22.18;37.84;100302.31;5135046;27;19958;-47
2024/01/06 00:39:20;;;;;;;;;;;;;;;22.16;37.92;100309.78;5138037;27;19919;-48
2024/01/06 00:41:45;;;;;;;;;;;;;;;22.13;37.61;100314.78;5140581;27;19941;-49
2024/01/06 00:44:10;;;;;;;;;;;;;;;22.08;37.77;100312.66;5138000;27;20292;-47
2024/01/06 00:46:35;;;;;;;;;;;;;;;22.05;37.90;100315.78;5143175;27;19915;-47
2024/01/06 00:49:00;;;;;;;;;;;;;;;22.01;37.91;100319.94;5141650;27;19916;-49
2024/01/06 00:51:26;;;;;;;;;;;;;;;21.96;37.99;100320.56;5143214;27;20393;-49
2024/01/06 00:53:51;;;;;;;;;;;;;;;21.95;38.18;100318.84;5139174;27;20246;-46
2024/01/06 00:56:16;;;;;;;;;;;;;;;21.94;38.18;100322.63;5129253;27;19912;-45
2024/01/06 00:58:41;;;;;;;;;;;;;;;21.93;38.08;100333.66;5137924;27;19926;-47
2024/01/06 01:01:07;;;;;;;;;;;;;;;21.90;38.24;100332.16;5137640;27;19919;-47
2024/01/06 01:03:32;;;;;;;;;;;;;;;21.87;38.07;100329.84;5149158;27;19994;-49
2024/01/06 01:05:57;;;;;;;;;;;;;;;21.86;38.23;100333.63;5141256;27;20271;-46
2024/01/06 01:08:23;;;;;;;;;;;;;;;21.84;38.05;100333.00;5137668;27;19926;-46
2024/01/06 01:10:48;;;;;;;;;;;;;;;21.82;38.22;100328.81;5139931;27;19981;-48
2024/01/06 01:13:13;;;;;;;;;;;;;;;21.80;38.50;100328.19;5136388;27;19912;-44
2024/01/06 01:15:38;;;;;;;;;;;;;;;21.77;38.21;100329.41;5139308;27;20075;-46
2024/01/06 01:18:03;;;;;;;;;;;;;;;21.76;38.28;100335.03;5139926;27;19919;-46
2024/01/06 01:20:29;;;;;;;;;;;;;;;21.74;38.30;100343.34;5140546;27;19915;-46
2024/01/06 01:22:54;;;;;;;;;;;;;;;21.70;38.55;100340.19;5138061;27;20413;-49
2024/01/06 01:25:19;;;;;;;;;;;;;;;21.69;38.49;100343.94;5144742;27;20324;-45
2024/01/06 01:27:45;;;;;;;;;;;;;;;21.67;38.35;100347.91;5142488;27;19971;-45
2024/01/06 01:30:10;;;;;;;;;;;;;;;21.65;38.51;100347.25;5137925;27;19919;-46
2024/01/06 01:32:35;;;;;;;;;;;;;;;21.64;38.33;100357.25;5141765;27;19920;-44
2024/01/06 01:35:00;;;;;;;;;;;;;;;21.62;38.68;100359.31;5135493;27;19915;-46
2024/01/06 01:37:25;;;;;;;;;;;;;;;21.61;38.31;100356.81;5138936;27;19926;-46
2024/01/06 01:39:51;;;;;;;;;;;;;;;21.59;38.48;100364.28;5140038;27;19994;-44
2024/01/06 01:42:16;;;;;;;;;;;;;;;21.55;38.61;100366.56;5143235;27;19935;-44
2024/01/06 01:44:41;;;;;;;;;;;;;;;21.54;38.76;100370.31;5138683;27;19919;-44
2024/01/06 01:47:06;;;;;;;;;;;;;;;21.53;38.74;100374.03;5139956;27;19940;-46
2024/01/06 01:49:32;;;;;;;;;;;;;;;21.52;38.66;100368.81;5142405;27;19915;-44
2024/01/06 01:51:57;;;;;;;;;;;;;;;21.49;38.53;100375.44;5138496;27;19915;-44
2024/01/06 01:54:22;;;;;;;;;;;;;;;21.47;38.54;100385.66;5132398;27;19912;-44
2024/01/06 01:56:48;;;;;;;;;;;;;;;21.44;38.61;100375.22;5140074;27;19919;-46
2024/01/06 01:59:13;;;;;;;;;;;;;;;21.42;38.92;100383.53;5129053;27;20284;-44
2024/01/06 02:01:42;;;;;;;;;;;;;;;21.41;38.63;100392.69;5141824;27;20350;-43
2024/01/06 02:04:07;;;;;;;;;;;;;;;21.38;39.02;100392.25;5117893;27;19916;-43
2024/01/06 02:06:33;;;;;;;;;;;;;;;21.36;38.97;100397.84;5141746;27;19919;-46
2024/01/06 02:08:58;;;;;;;;;;;;;;;21.34;38.86;100394.50;5138706;27;19959;-45
2024/01/06 02:11:23;;;;;;;;;;;;;;;21.34;39.01;100408.03;5121406;27;19918;-44
2024/01/06 02:13:49;;;;;;;;;;;;;;;21.32;38.87;100404.66;5140154;27;19911;-44
2024/01/06 02:16:14;;;;;;;;;;;;;;;21.30;39.10;100412.13;5138523;27;20022;-43
2024/01/06 02:18:39;;;;;;;;;;;;;;;21.28;38.70;100408.78;5138676;27;20002;-44
2024/01/06 02:21:04;;;;;;;;;;;;;;;21.27;38.99;100420.63;5128369;27;19915;-46
2024/01/06 02:23:29;;;;;;;;;;;;;;;21.24;39.09;100418.34;5129137;27;20366;-48
2024/01/06 02:25:55;;;;;;;;;;;;;;;21.23;38.85;100430.16;5140997;27;20285;-46
2024/01/06 02:28:20;;;;;;;;;;;;;;;21.20;39.09;100439.50;5141109;27;19980;-45
2024/01/06 02:30:45;;;;;;;;;;;;;;;21.19;38.89;100437.81;5136768;27;19916;-45
2024/01/06 02:33:10;;;;;;;;;;;;;;;21.15;39.26;100433.00;5120693;27;19912;-46
2024/01/06 02:35:36;;;;;;;;;;;;;;;21.14;39.02;100439.44;5126572;27;19916;-47
2024/01/06 02:38:01;;;;;;;;;;;;;;;21.13;39.25;100443.19;5135020;27;19935;-47
2024/01/06 02:40:26;;;;;;;;;;;;;;;21.10;39.09;100444.41;5138436;27;19923;-46
2024/01/06 02:42:52;;;;;;;;;;;;;;;21.08;39.03;100457.28;5140155;27;19923;-46
2024/01/06 02:45:17;;;;;;;;;;;;;;;21.06;39.19;100458.50;5140353;27;19922;-45
2024/01/06 02:47:42;;;;;;;;;;;;;;;21.05;39.42;100464.94;5136443;27;19915;-45
2024/01/06 02:50:07;;;;;;;;;;;;;;;21.03;39.18;100477.81;5132116;27;19919;-44
2024/01/06 02:52:32;;;;;;;;;;;;;;;20.99;39.21;100466.56;5131366;27;19954;-45
2024/01/06 02:54:58;;;;;;;;;;;;;;;20.97;39.40;100469.44;5137010;27;19912;-47
2024/01/06 02:57:23;;;;;;;;;;;;;;;20.95;39.14;100478.78;5138770;27;19907;-47
2024/01/06 02:59:48;;;;;;;;;;;;;;;20.93;39.25;100480.81;5138774;27;20134;-45
2024/01/06 03:02:13;;;;;;;;;;;;;;;20.91;39.35;100483.72;5116141;27;19987;-49
2024/01/06 03:04:38;;;;;;;;;;;;;;;20.89;39.63;100482.25;5135802;27;19915;-47
2024/01/06 03:07:04;;;;;;;;;;;;;;;20.87;39.56;100479.75;5143700;27;19916;-46
2024/01/06 03:09:29;;;;;;;;;;;;;;;20.86;39.44;100494.28;5135807;27;19924;-47
2024/01/06 03:11:54;;;;;;;;;;;;;;;20.84;39.63;100487.38;5139057;27;20154;-44
2024/01/06 03:14:19;;;;;;;;;;;;;;;20.82;39.45;100494.84;5124637;28;19912;-46
2024/01/06 03:16:44;;;;;;;;;;;;;;;20.80;39.68;100496.91;5138007;27;20017;-46
2024/01/06 03:19:10;;;;;;;;;;;;;;;20.78;39.79;100497.09;5134812;27;19964;-48
2024/01/06 03:21:35;;;;;;;;;;;;;;;20.77;39.61;100495.41;5140442;27;20444;-43
2024/01/06 03:24:00;;;;;;;;;;;;;;;20.75;39.75;100516.38;5136612;27;19922;-44
2024/01/06 03:26:25;;;;;;;;;;;;;;;20.72;39.56;100514.06;5137890;27;19916;-44
2024/01/06 03:28:50;;;;;;;;;;;;;;;20.70;39.65;100514.25;5140482;27;19916;-45
2024/01/06 03:31:16;;;;;;;;;;;;;;;20.70;39.79;100522.38;5123820;28;19923;-44
2024/01/06 03:33:42;;;;;;;;;;;;;;;20.68;39.91;100521.69;5135739;27;19904;-43
2024/01/06 03:36:07;;;;;;;;;;;;;;;20.66;39.58;100521.06;5133404;27;19916;-45
2024/01/06 03:38:33;;;;;;;;;;;;;;;20.64;39.92;100528.50;5139681;27;19959;-43
2024/01/06 03:40:58;;;;;;;;;;;;;;;20.63;39.64;100528.72;5137245;27;19927;-44
2024/01/06 03:43:23;;;;;;;;;;;;;;;20.61;39.88;100533.47;5137066;28;19926;-44
2024/01/06 03:45:48;;;;;;;;;;;;;;;20.59;39.59;100535.50;5135683;28;19911;-46
2024/01/06 03:48:13;;;;;;;;;;;;;;;20.58;39.68;100540.09;5133876;28;19964;-44
2024/01/06 03:50:39;;;;;;;;;;;;;;;20.56;39.60;100544.84;5134794;27;20002;-43
2024/01/06 03:53:04;;;;;;;;;;;;;;;20.54;39.89;100541.47;5142200;27;19997;-44
2024/01/06 03:55:29;;;;;;;;;;;;;;;20.53;39.96;100556.03;5137970;27;19947;-44
2024/01/06 03:57:55;;;;;;;;;;;;;;;20.51;40.00;100544.53;5137518;27;19924;-44
2024/01/06 04:00:20;;;;;;;;;;;;;;;20.50;39.79;100548.28;5136435;27;19916;-44
2024/01/06 04:02:45;;;;;;;;;;;;;;;20.48;39.98;100544.94;5137460;27;20017;-42
2024/01/06 04:05:10;;;;;;;;;;;;;;;20.46;39.78;100564.00;5140277;27;19915;-45
2024/01/06 04:07:35;;;;;;;;;;;;;;;20.44;39.81;100557.13;5143534;27;19911;-45
2024/01/06 04:10:01;;;;;;;;;;;;;;;20.43;40.09;100558.97;5138958;27;19968;-43
2024/01/06 04:12:26;;;;;;;;;;;;;;;20.42;39.76;100564.56;5134668;27;19939;-44
2024/01/06 04:14:51;;;;;;;;;;;;;;;20.39;39.98;100565.78;5133114;27;19919;-43
2024/01/06 04:17:16;;;;;;;;;;;;;;;20.37;39.98;100565.13;5141603;27;19911;-45
2024/01/06 04:19:42;;;;;;;;;;;;;;;20.36;40.06;100576.94;5138677;27;20461;-44
2024/01/06 04:22:07;;;;;;;;;;;;;;;20.33;39.81;100574.59;5140935;27;19940;-44
2024/01/06 04:24:36;;;;;;;;;;;;;;;20.32;39.74;100569.41;5146147;27;19916;-45
2024/01/06 04:27:02;;;;;;;;;;;;;;;20.30;39.97;100577.66;5141082;27;19911;-44
2024/01/06 04:29:27;;;;;;;;;;;;;;;20.30;39.83;100587.63;5130533;27;19945;-43
2024/01/06 04:31:52;;;;;;;;;;;;;;;20.28;39.86;100589.69;5143876;27;19939;-46
2024/01/06 04:34:17;;;;;;;;;;;;;;;20.26;39.96;100589.03;5135421;27;19915;-46
2024/01/06 04:36:42;;;;;;;;;;;;;;;20.24;40.10;100594.63;5139848;27;19919;-48
2024/01/06 04:39:08;;;;;;;;;;;;;;;20.22;40.11;100592.13;5143633;27;19912;-47
2024/01/06 04:41:33;;;;;;;;;;;;;;;20.21;39.83;100592.28;5138596;27;20002;-48
2024/01/06 04:43:58;;;;;;;;;;;;;;;20.19;39.81;100597.88;5140211;27;19915;-49
2024/01/06 04:46:23;;;;;;;;;;;;;;;20.17;39.95;100602.59;5142998;27;19911;-48
2024/01/06 04:48:49;;;;;;;;;;;;;;;20.17;39.92;100597.22;5140232;27;20278;-46
2024/01/06 04:51:14;;;;;;;;;;;;;;;20.16;39.91;100605.50;5139294;27;19939;-49
2024/01/06 04:53:40;;;;;;;;;;;;;;;20.13;39.87;100600.47;5143060;27;19916;-45
2024/01/06 04:56:05;;;;;;;;;;;;;;;20.13;40.25;100600.47;5139716;27;20074;-44
2024/01/06 04:58:30;;;;;;;;;;;;;;;20.11;39.89;100602.53;5137504;27;20096;-49
2024/01/06 05:00:55;;;;;;;;;;;;;;;20.08;40.09;100606.41;5140276;27;19971;-44
2024/01/06 05:03:20;;;;;;;;;;;;;;;20.07;40.26;100603.91;5140709;27;19916;-46
2024/01/06 05:05:46;;;;;;;;;;;;;;;20.06;39.93;100602.25;5136949;27;19927;-45
2024/01/06 05:08:11;;;;;;;;;;;;;;;20.05;40.27;100614.03;5127311;27;20422;-45
2024/01/06 05:10:36;;;;;;;;;;;;;;;20.03;40.28;100616.94;5140789;27;19916;-43
2024/01/06 05:13:02;;;;;;;;;;;;;;;20.01;39.97;100619.00;5138922;27;19911;-46
2024/01/06 05:15:27;;;;;;;;;;;;;;;20.00;40.16;100619.16;5140266;27;19912;-45
2024/01/06 05:17:52;;;;;;;;;;;;;;;19.98;40.06;100627.44;5138311;27;19918;-46
2024/01/06 05:20:17;;;;;;;;;;;;;;;19.96;40.43;100630.34;5136401;27;19919;-45
2024/01/06 05:22:42;;;;;;;;;;;;;;;19.96;40.14;100629.47;5131194;27;20366;-44
2024/01/06 05:25:09;;;;;;;;;;;;;;;19.94;40.29;100639.63;5118090;27;19926;-45
2024/01/06 05:27:34;;;;;;;;;;;;;;;19.93;40.19;100640.66;5136153;27;20009;-46
2024/01/06 05:29:59;;;;;;;;;;;;;;;19.93;40.46;100637.94;5130980;27;19990;-43
2024/01/06 05:32:24;;;;;;;;;;;;;;;19.91;40.74;100643.50;5136681;27;19912;-44
2024/01/06 05:34:49;;;;;;;;;;;;;;;19.90;40.55;100644.53;5134744;27;19964;-44
2024/01/06 05:37:14;;;;;;;;;;;;;;;19.90;40.72;100641.00;5137463;27;19954;-44
2024/01/06 05:39:40;;;;;;;;;;;;;;;19.89;40.68;100648.25;5138459;27;20024;-44
2024/01/06 05:42:05;;;;;;;;;;;;;;;19.90;41.12;100655.31;5137209;27;19927;-44
2024/01/06 05:44:30;;;;;;;;;;;;;;;19.90;40.94;100659.88;5128450;27;19916;-45
2024/01/06 05:46:56;;;;;;;;;;;;;;;19.87;41.17;100661.06;5137858;27;20152;-44
2024/01/06 05:49:21;;;;;;;;;;;;;;;19.88;41.25;100659.22;5131428;27;19924;-43
2024/01/06 05:51:46;;;;;;;;;;;;;;;19.87;41.21;100665.63;5132350;27;19916;-42
2024/01/06 05:54:12;;;;;;;;;;;;;;;19.86;40.87;100672.91;5136332;27;19916;-42
2024/01/06 05:56:37;;;;;;;;;;;;;;;19.85;41.21;100670.38;5129031;27;19912;-43
2024/01/06 05:59:02;;;;;;;;;;;;;;;19.84;41.27;100669.56;5132663;27;19923;-42
2024/01/06 06:01:28;;;;;;;;;;;;;;;19.83;41.20;100678.66;5133814;27;19965;-43
2024/01/06 06:03:53;;;;;;;;;;;;;;;19.82;41.61;100678.84;5133988;27;19965;-45
2024/01/06 06:06:18;;;;;;;;;;;;;;;19.80;41.62;100679.03;5131575;27;19933;-47
2024/01/06 06:08:43;;;;;;;;;;;;;;;19.79;41.21;100685.41;5130962;27;19950;-48
2024/01/06 06:11:12;;;;;;;;;;;;;;;19.78;41.56;100685.59;5132124;27;19918;-48
2024/01/06 06:13:38;;;;;;;;;;;;;;;19.77;41.43;100695.56;5128157;27;19923;-48
2024/01/06 06:16:04;;;;;;;;;;;;;;;19.75;41.62;100692.19;5132897;27;19915;-48
2024/01/06 06:18:29;;;;;;;;;;;;;;;19.75;41.68;100702.97;5132995;27;20385;-46
2024/01/06 06:20:54;;;;;;;;;;;;;;;19.75;41.76;100710.22;5132276;27;19912;-45
2024/01/06 06:23:20;;;;;;;;;;;;;;;19.73;41.71;100715.81;5132809;27;19935;-46
2024/01/06 06:25:45;;;;;;;;;;;;;;;19.72;41.02;100722.25;5135710;27;19916;-46
2024/01/06 06:28:11;;;;;;;;;;;;;;;19.71;41.44;100728.66;5129525;27;19937;-46
2024/01/06 06:30:36;;;;;;;;;;;;;;;19.68;41.34;100729.84;5130369;27;19923;-47
2024/01/06 06:33:01;;;;;;;;;;;;;;;19.66;41.12;100736.44;5131885;27;20023;-49
2024/01/06 06:35:26;;;;;;;;;;;;;;;19.64;41.45;100744.72;5133030;27;19923;-43
2024/01/06 06:37:51;;;;;;;;;;;;;;;19.62;41.37;100744.03;5133192;27;19926;-46
2024/01/06 06:40:17;;;;;;;;;;;;;;;19.61;41.17;100752.31;5131465;27;19911;-49
2024/01/06 06:42:42;;;;;;;;;;;;;;;19.59;41.11;100748.94;5133134;27;19919;-48
2024/01/06 06:45:08;;;;;;;;;;;;;;;19.58;40.99;100758.88;5127305;27;20030;-44
2024/01/06 06:47:33;;;;;;;;;;;;;;;19.56;41.11;100762.75;5132469;27;20226;-46
2024/01/06 06:49:58;;;;;;;;;;;;;;;19.56;41.00;100765.44;5134775;27;19916;-48
2024/01/06 06:52:23;;;;;;;;;;;;;;;19.54;40.64;100762.06;5137490;27;19925;-48
2024/01/06 06:54:48;;;;;;;;;;;;;;;19.53;40.61;100769.34;5132312;27;19912;-47
2024/01/06 06:57:14;;;;;;;;;;;;;;;19.53;40.57;100773.88;5130222;27;19915;-46
2024/01/06 06:59:39;;;;;;;;;;;;;;;19.52;40.81;100777.59;5127382;27;19919;-46
2024/01/06 07:02:05;;;;;;;;;;;;;;;19.52;40.72;100777.59;5132388;27;19912;-48
2024/01/06 07:04:32;;;;;;;;;;;;;;;19.52;40.72;100777.59;5133100;27;20292;-44
2024/01/06 07:06:57;;;;;;;;;;;;;;;19.52;40.36;100777.59;5134918;27;19916;-45
2024/01/06 07:09:25;;;;;;;;;;;;;;;19.50;40.36;100791.28;5137273;27;19915;-47
2024/01/06 07:11:51;;;;;;;;;;;;;;;19.50;40.37;100791.28;5137912;27;19975;-47
2024/01/06 07:14:16;;;;;;;;;;;;;;;19.52;40.40;100796.47;5134046;27;19915;-46
2024/01/06 07:16:41;;;;;;;;;;;;;;;19.52;40.02;100789.22;5128589;27;19937;-48
2024/01/06 07:19:06;;;;;;;;;;;;;;;19.53;39.95;100801.69;5134276;27;19976;-48
2024/01/06 07:21:32;;;;;;;;;;;;;;;19.55;40.02;100806.94;5131350;27;19911;-46
2024/01/06 07:23:57;;;;;;;;;;;;;;;19.56;39.80;100811.28;5132464;27;19915;-46
2024/01/06 07:26:22;;;;;;;;;;;;;;;19.56;39.63;100808.59;5131919;27;19919;-46
2024/01/06 07:28:47;;;;;;;;;;;;;;;19.58;39.63;100814.66;5134410;27;19919;-47
2024/01/06 07:31:12;;;;;;;;;;;;;;;19.60;39.67;100820.72;5132501;27;19924;-48
2024/01/06 07:33:39;;;;;;;;;;;;;;;19.60;39.47;100816.16;5131671;27;19998;-49
2024/01/06 07:36:04;;;;;;;;;;;;;;;19.62;39.52;100826.78;5139070;27;19939;-48
2024/01/06 07:38:30;;;;;;;;;;;;;;;19.63;39.72;100828.50;5129792;27;19938;-46
2024/01/06 07:40:56;;;;;;;;;;;;;;;19.62;39.61;100835.72;5136798;27;19922;-49
2024/01/06 07:43:21;;;;;;;;;;;;;;;19.62;39.45;100842.97;5122464;27;19915;-48
2024/01/06 07:45:46;;;;;;;;;;;;;;;19.62;39.58;100848.38;5134232;27;19924;-47
2024/01/06 07:48:11;;;;;;;;;;;;;;;19.63;39.71;100847.38;5134342;27;19951;-44
2024/01/06 07:50:36;;;;;;;;;;;;;;;19.64;39.72;100847.19;5132797;28;19999;-48
2024/01/06 07:53:02;;;;;;;;;;;;;;;19.67;39.48;100851.41;5130827;28;19968;-46
2024/01/06 07:55:28;;;;;;;;;;;;;;;19.69;39.58;100854.75;5132003;28;19980;-47
2024/01/06 07:57:54;;;;;;;;;;;;;;;19.70;39.42;100865.38;5133938;28;20036;-47
2024/01/06 08:00:19;;;;;;;;;;;;;;;19.71;39.08;100869.78;5134942;28;19919;-48
2024/01/06 08:02:44;;;;;;;;;;;;;;;19.73;39.48;100872.28;5138298;28;19943;-48
2024/01/06 08:05:09;;;;;;;;;;;;;;;19.74;39.16;100876.66;5135170;28;19919;-46
2024/01/06 08:07:34;;;;;;;;;;;;;;;19.77;39.42;100886.25;5130586;28;19912;-47
2024/01/06 08:10:00;;;;;;;;;;;;;;;19.26;39.31;100800.28;5124876;28;19911;-44
2024/01/06 08:12:25;;;;;;;;;;;;;;;19.80;38.92;100894.84;5127659;28;21067;-48
2024/01/06 08:14:50;;;;;;;;;;;;;;;19.82;39.13;100898.19;5131559;28;19945;-46
2024/01/06 08:17:15;;;;;;;;;;;;;;;19.83;38.87;100894.47;5117242;28;19927;-46
2024/01/06 08:19:41;;;;;;;;;;;;;;;19.85;39.14;100903.25;5128617;28;20120;-50
2024/01/06 08:22:07;;;;;;;;;;;;;;;19.87;38.75;100901.22;5129569;28;19947;-48
2024/01/06 08:24:32;;;;;;;;;;;;;;;19.89;38.99;100904.59;5129915;28;19915;-48
2024/01/06 08:26:57;;;;;;;;;;;;;;;19.92;38.66;100911.47;5133473;28;19915;-46
2024/01/06 08:29:22;;;;;;;;;;;;;;;19.94;38.83;100912.16;5132495;28;19961;-48
2024/01/06 08:31:50;;;;;;;;;;;;;;;19.94;38.74;100915.69;5131121;28;20022;-46
2024/01/06 08:34:15;;;;;;;;;;;;;;;19.97;38.66;100917.22;5120055;28;19916;-47
2024/01/06 08:36:40;;;;;;;;;;;;;;;19.95;38.59;100922.75;5132294;28;20438;-47
2024/01/06 08:39:05;;;;;;;;;;;;;;;19.97;38.64;100917.22;5139361;27;19919;-45
2024/01/06 08:41:31;;;;;;;;;;;;;;;19.98;38.52;100924.28;5138571;27;19912;-45
2024/01/06 08:43:56;;;;;;;;;;;;;;;20.01;38.59;100929.34;5139896;27;19926;-46
2024/01/06 08:46:21;;;;;;;;;;;;;;;20.04;38.29;100938.94;5139652;27;19919;-47
2024/01/06 08:48:46;;;;;;;;;;;;;;;20.06;38.12;100940.44;5136637;27;19916;-48
2024/01/06 08:51:12;;;;;;;;;;;;;;;20.08;38.10;100941.09;5135765;27;19919;-47
2024/01/06 08:53:37;;;;;;;;;;;;;;;20.09;37.96;100942.81;5124520;27;20318;-47
2024/01/06 08:56:02;;;;;;;;;;;;;;;20.10;38.07;100941.78;5122374;27;19920;-45
2024/01/06 08:58:27;;;;;;;;;;;;;;;20.13;38.19;100938.72;5136206;27;19930;-45
2024/01/06 09:00:53;;;;;;;;;;;;;;;20.14;37.77;100951.22;5140345;27;19947;-46
2024/01/06 09:03:20;;;;;;;;;;;;;;;20.16;37.58;100954.56;5139907;27;20002;-48
2024/01/06 09:05:46;;;;;;;;;;;;;;;20.17;37.96;100958.09;5137434;27;20293;-49
2024/01/06 09:08:11;;;;;;;;;;;;;;;20.19;37.91;100962.31;5135060;27;19943;-49
2024/01/06 09:10:36;;;;;;;;;;;;;;;20.21;37.94;100968.38;5134185;27;19919;-50
2024/01/06 09:13:01;;;;;;;;;;;;;;;20.25;37.63;100974.25;5136222;27;19912;-44
2024/01/06 09:15:26;;;;;;;;;;;;;;;20.23;37.59;100971.75;5137639;27;19921;-49
2024/01/06 09:17:52;;;;;;;;;;;;;;;20.25;37.66;100976.13;5137102;27;19926;-45
2024/01/06 09:20:22;;;;;;;;;;;;;;;20.29;37.65;100985.56;5134796;27;19927;-45
2024/01/06 09:22:47;;;;;;;;;;;;;;;20.31;37.60;100992.47;5134713;27;19912;-44
2024/01/06 09:25:13;;;;;;;;;;;;;;;20.33;37.34;100992.28;5116520;27;19911;-45
2024/01/06 09:27:38;;;;;;;;;;;;;;;20.34;37.42;100996.66;5135202;27;19919;-44
2024/01/06 09:30:03;;;;;;;;;;;;;;;20.36;37.12;101000.03;5137472;27;20374;-44
2024/01/06 09:32:28;;;;;;;;;;;;;;;20.38;37.15;101001.53;5133903;27;19974;-45
2024/01/06 09:34:54;;;;;;;;;;;;;;;20.40;37.46;101007.63;5134373;27;20316;-47
2024/01/06 09:37:19;;;;;;;;;;;;;;;20.40;37.24;101007.63;5135123;27;20331;-47
2024/01/06 09:39:44;;;;;;;;;;;;;;;20.40;37.28;101015.72;5135686;27;19920;-47
2024/01/06 09:42:11;;;;;;;;;;;;;;;20.42;37.17;101020.94;5136050;27;19919;-47
2024/01/06 09:44:36;;;;;;;;;;;;;;;20.41;37.26;101019.25;5130904;27;19922;-48
2024/01/06 09:47:01;;;;;;;;;;;;;;;20.43;37.19;101028.00;5130905;27;19915;-45
2024/01/06 09:49:27;;;;;;;;;;;;;;;20.45;37.00;101029.53;5128482;27;19919;-47
2024/01/06 09:51:52;;;;;;;;;;;;;;;20.48;37.16;101036.47;5117833;27;19915;-45
2024/01/06 09:54:20;;;;;;;;;;;;;;;20.49;36.98;101038.16;5136834;27;19911;-45
2024/01/06 09:56:45;;;;;;;;;;;;;;;20.52;36.54;101040.53;5130091;27;20286;-47
2024/01/06 09:59:10;;;;;;;;;;;;;;;20.53;36.97;101049.47;5125696;27;20405;-46
2024/01/06 10:01:36;;;;;;;;;;;;;;;20.55;36.66;101050.09;5127848;27;20001;-45
2024/01/06 10:04:01;;;;;;;;;;;;;;;20.57;36.51;101053.50;5136285;27;19903;-46
2024/01/06 10:06:26;;;;;;;;;;;;;;;20.58;36.61;101052.47;5137178;27;20038;-48
2024/01/06 10:08:52;;;;;;;;;;;;;;;20.60;36.81;101058.53;5135270;27;19911;-44
2024/01/06 10:11:22;;;;;;;;;;;;;;;20.61;36.47;101060.22;5132164;27;19918;-46
2024/01/06 10:13:50;;;;;;;;;;;;;;;20.63;36.90;101060.88;5135522;27;19911;-46
2024/01/06 10:16:16;;;;;;;;;;;;;;;20.65;36.80;101067.81;5131079;27;19908;-45
2024/01/06 10:18:41;;;;;;;;;;;;;;;20.65;36.75;101069.66;5126774;27;20350;-45
2024/01/06 10:21:06;;;;;;;;;;;;;;;20.67;36.35;101071.16;5127884;27;19965;-47
2024/01/06 10:23:31;;;;;;;;;;;;;;;20.71;36.52;101074.34;5127289;27;19967;-47
2024/01/06 10:25:57;;;;;;;;;;;;;;;20.73;36.62;101072.34;5218215;22;19940;-73
2024/01/06 10:28:25;;;;;;;;;;;;;;;20.76;36.52;101088.16;5044622;28;19963;-75
2024/01/06 10:30:53;;;;;;;;;;;;;;;20.79;36.13;101078.88;5048893;28;19919;-74
2024/01/06 10:33:19;;;;;;;;;;;;;;;20.80;36.01;101086.78;5045957;28;20007;-74
2024/01/06 10:35:44;;;;;;;;;;;;;;;20.81;36.01;101083.06;5045589;28;19920;-73
2024/01/06 10:38:11;;;;;;;;;;;;;;;20.81;36.16;101087.63;5044704;28;19920;-73
2024/01/06 10:40:36;;;;;;;;;;;;;;;20.82;36.02;101092.03;5039407;28;19924;-74
2024/01/06 10:43:01;;;;;;;;;;;;;;;20.82;35.91;101090.19;5037853;28;19913;-74
2024/01/06 10:45:27;;;;;;;;;;;;;;;20.84;35.75;101092.69;5034850;28;20476;-74
2024/01/06 10:47:53;;;;;;;;;;;;;;;20.84;36.09;101096.22;5040595;28;19936;-74
2024/01/06 10:50:18;;;;;;;;;;;;;;;20.84;36.09;101098.94;5040701;28;19921;-74
2024/01/06 10:52:43;;;;;;;;;;;;;;;20.86;36.05;101094.22;5037669;28;19913;-75
2024/01/06 10:55:08;;;;;;;;;;;;;;;20.88;36.05;101102.13;5031764;28;19917;-73
2024/01/06 10:57:33;;;;;;;;;;;;;;;20.89;35.65;101103.81;5038373;28;19924;-74
2024/01/06 10:59:59;;;;;;;;;;;;;;;20.90;35.85;101105.53;5039348;28;19924;-76
2024/01/06 11:02:25;;;;;;;;;;;;;;;20.92;35.90;101107.00;5026572;28;19917;-76
2024/01/06 11:04:50;;;;;;;;;;;;;;;20.95;35.76;101111.22;5048026;28;20638;-77
2024/01/06 11:07:16;;;;;;;;;;;;;;;20.98;35.83;101113.56;5042030;28;19977;-75
2024/01/06 11:09:43;;;;;;;;;;;;;;;21.00;36.07;101108.00;5037080;28;19917;-75
2024/01/06 11:12:09;;;;;;;;;;;;;;;21.03;35.97;101115.75;5041670;28;19916;-74
2024/01/06 11:14:37;;;;;;;;;;;;;;;21.06;35.95;101121.63;5040992;28;19991;-74
2024/01/06 11:17:02;;;;;;;;;;;;;;;21.09;35.64;101121.28;5041431;28;19924;-75
2024/01/06 11:19:33;;;;;;;;;;;;;;;21.11;35.76;101127.38;5043322;28;19921;-76
2024/01/06 11:22:17;;;;;;;;;;;;;;;21.13;35.70;101121.75;5039694;28;19921;-75
2024/01/06 11:24:43;;;;;;;;;;;;;;;21.13;35.89;101117.19;5042981;28;19932;-76
2024/01/06 11:27:09;;;;;;;;;;;;;;;21.15;35.93;101123.28;5032180;28;19917;-76
2024/01/06 11:29:34;;;;;;;;;;;;;;;21.15;35.55;101130.53;5053608;28;19917;-74
2024/01/06 11:32:19;;;;;;;;;;;;;;;21.19;35.94;101131.84;5038476;28;20367;-76
2024/01/06 11:34:47;;;;;;;;;;;;;;;21.20;35.46;101134.41;5038899;28;19928;-77
2024/01/06 11:37:13;;;;;;;;;;;;;;;21.21;35.58;101124.41;5034432;28;19972;-76
2024/01/06 11:39:40;;;;;;;;;;;;;;;21.23;35.73;101133.19;5044787;28;20008;-74
2024/01/06 11:42:05;;;;;;;;;;;;;;;21.27;35.75;101126.41;5039858;28;19935;-75
2024/01/06 11:44:34;;;;;;;;;;;;;;;21.34;35.61;101129.28;5032695;28;20508;-76
2024/01/06 11:46:59;;;;;;;;;;;;;;;21.38;35.30;101134.16;5033378;28;19914;-75
2024/01/06 11:49:31;;;;;;;;;;;;;;;21.42;35.12;101138.16;5039809;28;19917;-76
2024/01/06 11:51:56;;;;;;;;;;;;;;;21.45;35.24;101135.13;5041938;28;19952;-78
2024/01/06 11:54:21;;;;;;;;;;;;;;;21.48;35.11;101128.50;5037788;28;19924;-77
2024/01/06 11:56:47;;;;;;;;;;;;;;;21.47;35.04;101132.22;5039291;28;19917;-77
2024/01/06 11:59:12;;;;;;;;;;;;;;;21.49;34.93;101132.03;5043481;28;19924;-77
2024/01/06 12:01:37;;;;;;;;;;;;;;;21.45;35.19;101127.00;5041771;28;19917;-74
2024/01/06 12:04:04;;;;;;;;;;;;;;;21.47;34.94;101132.22;5035892;28;19921;-76
2024/01/06 12:06:30;;;;;;;;;;;;;;;21.50;34.85;101139.97;5035071;28;19913;-76
2024/01/06 12:09:03;;;;;;;;;;;;;;;21.51;34.88;101133.53;5040827;28;19913;-77
2024/01/06 12:11:28;;;;;;;;;;;;;;;21.56;34.63;101135.72;5043658;28;19921;-77
2024/01/06 12:13:53;;;;;;;;;;;;;;;21.58;34.69;101134.50;5049629;28;19924;-77
2024/01/06 12:16:18;;;;;;;;;;;;;;;21.61;34.40;101127.88;5049090;28;19926;-76
2024/01/06 12:18:43;;;;;;;;;;;;;;;21.63;34.43;101129.41;5043688;28;19960;-76
2024/01/06 12:21:08;;;;;;;;;;;;;;;21.66;34.36;101134.44;5040004;28;19921;-77
2024/01/06 12:23:34;;;;;;;;;;;;;;;21.69;34.52;101136.78;5044182;28;19984;-78
2024/01/06 12:26:00;;;;;;;;;;;;;;;21.71;34.41;101140.16;5047831;28;19921;-77